Time;durP1;ratioP1;P1;durP2;ratioP2;P2;SDS_P1;SDS_P2;PMS_P1;PMS_P2;Temp;Humidity;BMP_temperature;BMP_pressure;BME280_temperature;BME280_humidity;BME280_pressure;Samples;Min_cycle;Max_cycle;Signal;HPM_P1;HPM_P2
2021/11/30 00:00:08;;;;;;;;;15.80;14.20;;;;;6.96;58.72;101378.50;2073763;28;48401;-60
2021/11/30 00:01:09;;;;;;;;;14.80;14.80;;;;;6.97;58.99;101380.25;2070407;28;47795;-60
2021/11/30 00:02:10;;;;;;;;;11.25;11.25;;;;;6.95;59.04;101380.25;2078300;28;47741;-60
2021/11/30 00:03:10;;;;;;;;;12.50;12.50;;;;;6.95;59.03;101377.59;2079363;28;47374;-60
2021/11/30 00:04:12;;;;;;;;;15.25;11.75;;;;;6.96;59.25;101384.66;2087700;28;45353;-60
2021/11/30 00:05:12;;;;;;;;;18.00;16.60;;;;;6.96;58.87;101383.75;2084068;28;48469;-60
2021/11/30 00:06:13;;;;;;;;;13.00;12.25;;;;;6.96;58.58;101375.84;2086102;28;48326;-60
2021/11/30 00:07:14;;;;;;;;;12.75;11.50;;;;;6.96;59.19;101371.44;2083437;28;48233;-60
2021/11/30 00:08:15;;;;;;;;;16.50;15.50;;;;;6.97;59.02;101370.56;2084656;28;47358;-60
2021/11/30 00:10:46;;;;;;;;;13.80;13.80;;;;;7.00;58.86;101372.38;2083364;28;45322;-60
2021/11/30 00:11:48;;;;;;;;;14.60;14.00;;;;;7.00;58.97;101367.97;2087188;28;47361;-60
2021/11/30 00:12:48;;;;;;;;;15.40;14.40;;;;;7.03;59.13;101372.38;2087625;28;47263;-59
2021/11/30 00:13:49;;;;;;;;;9.00;8.00;;;;;7.03;59.13;101373.25;2078546;28;47184;-59
2021/11/30 00:14:52;;;;;;;;;11.50;10.50;;;;;7.04;58.89;101369.72;2077361;28;47025;-59
2021/11/30 00:15:55;;;;;;;;;9.80;9.20;;;;;7.06;59.30;101369.72;2075716;28;47359;-60
2021/11/30 00:16:57;;;;;;;;;14.40;14.00;;;;;7.07;58.82;101368.84;2075805;28;47617;-59
2021/11/30 00:17:58;;;;;;;;;13.80;11.00;;;;;7.07;59.12;101369.72;2088481;28;45513;-61
2021/11/30 00:18:59;;;;;;;;;13.00;11.00;;;;;7.09;58.91;101375.00;2086230;28;48129;-59
2021/11/30 00:19:59;;;;;;;;;13.25;10.75;;;;;7.11;59.09;101370.63;2075633;28;47659;-59
2021/11/30 00:21:01;;;;;;;;;15.50;13.50;;;;;7.12;58.99;101376.81;2075855;28;47263;-60
2021/11/30 00:22:04;;;;;;;;;14.80;14.80;;;;;7.14;59.15;101373.28;2075428;28;47124;-60
2021/11/30 00:23:05;;;;;;;;;15.40;12.00;;;;;7.15;59.38;101375.06;2076483;28;47368;-59
2021/11/30 00:24:06;;;;;;;;;10.00;10.00;;;;;7.16;59.16;101371.53;2086855;28;48924;-60
2021/11/30 00:25:06;;;;;;;;;15.50;14.25;;;;;7.17;58.91;101373.28;2086903;28;48053;-59
2021/11/30 00:26:07;;;;;;;;;15.00;13.25;;;;;7.19;59.08;101366.25;2085809;28;46361;-59
2021/11/30 00:27:07;;;;;;;;;14.50;12.50;;;;;7.20;59.06;101372.41;2085910;28;47144;-59
2021/11/30 00:28:09;;;;;;;;;11.75;11.00;;;;;7.21;59.20;101369.78;2083500;28;48315;-60
2021/11/30 00:29:09;;;;;;;;;13.80;11.00;;;;;7.22;59.18;101368.88;2083772;28;45673;-59
2021/11/30 00:30:10;;;;;;;;;10.25;10.25;;;;;7.23;59.13;101370.66;2078161;28;48172;-60
2021/11/30 00:31:11;;;;;;;;;12.00;12.00;;;;;7.24;59.28;101361.88;2078804;28;48008;-59
2021/11/30 00:32:12;;;;;;;;;10.50;10.50;;;;;7.26;58.90;101365.41;2087644;28;47582;-59
2021/11/30 00:33:13;;;;;;;;;12.80;10.40;;;;;7.27;58.74;101351.31;2086546;28;48277;-60
2021/11/30 00:34:13;;;;;;;;;12.50;11.50;;;;;7.28;59.31;101362.75;2086983;28;48071;-60
2021/11/30 00:35:14;;;;;;;;;11.00;10.25;;;;;7.29;58.74;101361.88;2085872;28;46232;-59
2021/11/30 00:36:17;;;;;;;;;17.00;15.00;;;;;7.29;59.06;101356.59;2088582;28;48422;-59
2021/11/30 00:37:18;;;;;;;;;12.80;12.80;;;;;7.29;59.01;101365.41;2073158;28;47625;-60
2021/11/30 00:38:19;;;;;;;;;10.25;10.25;;;;;7.29;59.23;101359.25;2078779;28;48164;-59
2021/11/30 00:39:19;;;;;;;;;15.00;14.60;;;;;7.30;58.72;101367.16;2084074;28;47214;-60
2021/11/30 00:40:20;;;;;;;;;10.00;10.00;;;;;7.30;59.15;101355.72;2088436;28;47503;-59
2021/11/30 00:41:21;;;;;;;;;10.25;10.25;;;;;7.32;58.98;101356.59;2086621;28;46075;-60
2021/11/30 00:42:24;;;;;;;;;11.00;11.00;;;;;7.31;58.95;101357.47;2086613;28;45817;-59
2021/11/30 00:43:31;;;;;;;;;9.00;9.00;;;;;7.31;58.78;101346.91;2086905;28;47405;-59
2021/11/30 00:44:35;;;;;;;;;15.60;15.40;;;;;7.30;58.52;101353.97;2086872;28;48178;-59
2021/11/30 00:45:39;;;;;;;;;11.20;11.20;;;;;7.29;58.77;101349.56;2076714;28;47154;-60
2021/11/30 00:46:41;;;;;;;;;10.80;10.80;;;;;7.28;59.06;101350.44;2075307;28;46708;-59
2021/11/30 00:47:52;;;;;;;;;13.00;13.00;;;;;7.29;58.88;101354.84;2088017;28;47709;-59
2021/11/30 00:48:52;;;;;;;;;12.20;12.20;;;;;7.28;58.96;101346.91;2084152;28;47379;-59
2021/11/30 00:49:53;;;;;;;;;13.25;11.50;;;;;7.29;59.32;101351.31;2088278;28;48197;-59
2021/11/30 00:50:57;;;;;;;;;11.00;11.00;;;;;7.29;59.39;101344.28;2086275;28;47589;-59
2021/11/30 00:52:18;;;;;;;;;8.80;8.80;;;;;7.31;59.05;101344.28;2074696;28;47414;-59
2021/11/30 00:53:36;;;;;;;;;14.60;11.60;;;;;7.31;59.07;101345.16;2082511;28;48102;-59
2021/11/30 00:54:49;;;;;;;;;17.40;14.00;;;;;7.32;59.17;101344.28;2086427;28;48792;-60
2021/11/30 00:56:11;;;;;;;;;11.40;11.40;;;;;7.35;58.57;101346.91;2076708;28;46324;-60
2021/11/30 00:57:32;;;;;;;;;16.80;14.60;;;;;7.36;59.08;101340.75;2076597;28;47309;-59
2021/11/30 00:58:47;;;;;;;;;15.60;14.40;;;;;7.39;59.41;101353.09;2072839;28;47015;-60
2021/11/30 01:00:11;;;;;;;;;15.80;15.80;;;;;7.40;58.96;101343.41;2072407;28;46834;-59
2021/11/30 01:01:31;;;;;;;;;11.20;8.20;;;;;7.41;59.44;101355.75;2084840;28;46420;-60
2021/11/30 01:02:51;;;;;;;;;10.40;10.20;;;;;7.42;59.26;101346.94;2077002;28;47072;-60
2021/11/30 01:04:12;;;;;;;;;14.40;14.20;;;;;7.43;59.27;101357.50;2075998;28;47124;-59
2021/11/30 01:05:25;;;;;;;;;13.00;13.00;;;;;7.44;59.25;101347.81;2081654;28;48140;-60
2021/11/30 01:06:39;;;;;;;;;12.40;12.40;;;;;7.47;59.20;101345.16;2076004;28;46403;-59
2021/11/30 01:07:59;;;;;;;;;13.20;13.20;;;;;7.47;59.22;101339.88;2072071;28;45460;-59
2021/11/30 01:09:20;;;;;;;;;14.60;13.80;;;;;7.48;59.48;101341.66;2075040;28;46133;-60
2021/11/30 01:10:40;;;;;;;;;14.00;11.80;;;;;7.50;59.14;101346.06;2072303;28;46937;-63
2021/11/30 01:12:01;;;;;;;;;15.00;11.20;;;;;7.49;59.27;101340.75;2076522;28;47831;-59
2021/11/30 01:13:21;;;;;;;;;11.00;11.00;;;;;7.50;58.98;101332.88;2077591;28;45462;-60
2021/11/30 01:14:42;;;;;;;;;11.00;11.00;;;;;7.51;59.37;101339.03;2069701;28;47182;-59
2021/11/30 01:16:03;;;;;;;;;12.60;12.60;;;;;7.52;59.47;101331.09;2069928;28;47717;-60
2021/11/30 01:17:24;;;;;;;;;15.40;14.60;;;;;7.52;59.44;101338.16;2073206;28;47805;-60
2021/11/30 01:18:41;;;;;;;;;11.80;11.00;;;;;7.52;59.14;101332.88;2080498;28;48557;-60
2021/11/30 01:20:04;;;;;;;;;14.00;14.00;;;;;7.52;59.42;101341.69;2075803;28;45475;-60
2021/11/30 01:21:25;;;;;;;;;13.80;13.80;;;;;7.52;59.21;101333.75;2066785;28;47613;-60
2021/11/30 01:22:46;;;;;;;;;12.80;12.80;;;;;7.53;59.50;101334.63;2071069;28;47716;-61
2021/11/30 01:24:08;;;;;;;;;15.00;13.80;;;;;7.51;59.28;101329.34;2074650;28;47546;-60
2021/11/30 01:25:28;;;;;;;;;9.40;8.00;;;;;7.52;59.57;101333.75;2072812;28;47942;-60
2021/11/30 01:26:48;;;;;;;;;12.40;12.40;;;;;7.53;59.48;101321.44;2073740;28;47085;-60
2021/11/30 01:28:09;;;;;;;;;12.40;12.20;;;;;7.53;59.25;101317.03;2071834;28;46899;-60
2021/11/30 01:29:29;;;;;;;;;14.60;14.00;;;;;7.54;59.44;101320.53;2075593;28;46851;-60
2021/11/30 01:30:50;;;;;;;;;17.20;15.00;;;;;7.55;59.46;101319.66;2074373;28;47928;-60
2021/11/30 01:32:11;;;;;;;;;15.80;15.00;;;;;7.57;59.41;101323.19;2078416;28;46925;-61
2021/11/30 01:33:35;;;;;;;;;16.00;13.60;;;;;7.57;59.58;101321.41;2073422;28;47034;-61
2021/11/30 01:34:55;;;;;;;;;17.40;14.60;;;;;7.57;59.46;101310.84;2075630;28;47842;-61
2021/11/30 01:36:16;;;;;;;;;14.40;13.20;;;;;7.58;59.27;101323.16;2076631;28;47713;-60
2021/11/30 01:37:34;;;;;;;;;13.00;13.00;;;;;7.59;59.45;101310.84;2084143;28;47804;-60
2021/11/30 01:38:52;;;;;;;;;14.20;12.40;;;;;7.59;59.60;101317.00;2076788;28;47711;-60
2021/11/30 01:40:13;;;;;;;;;12.00;11.00;;;;;7.60;59.40;101318.75;2081939;28;47404;-61
2021/11/30 01:41:36;;;;;;;;;15.00;14.60;;;;;7.61;59.31;101314.38;2078526;28;47752;-60
2021/11/30 01:42:59;;;;;;;;;9.40;9.40;;;;;7.61;59.38;101323.16;2078041;28;47504;-60
2021/11/30 01:44:05;;;;;;;;;12.20;12.00;;;;;7.61;59.49;101311.72;2078450;28;47262;-60
2021/11/30 01:49:43;;;;;;;;;14.20;14.20;;;;;7.64;59.33;101304.69;2086593;28;47025;-60
2021/11/30 01:51:03;;;;;;;;;17.40;15.20;;;;;7.66;59.60;101304.69;2086376;28;47076;-60
2021/11/30 01:52:24;;;;;;;;;11.60;11.60;;;;;7.67;59.77;101309.09;2100871;27;47102;-60
2021/11/30 01:53:42;;;;;;;;;13.00;13.00;;;;;7.68;59.84;101308.22;2095172;27;48920;-60
2021/11/30 01:55:00;;;;;;;;;12.00;11.00;;;;;7.70;59.68;101308.22;2090819;28;47442;-61
2021/11/30 01:56:13;;;;;;;;;15.60;13.00;;;;;7.70;59.60;101309.09;2089763;28;47147;-60
2021/11/30 01:57:33;;;;;;;;;12.20;11.60;;;;;7.72;59.60;101306.44;2089482;28;46920;-60
2021/11/30 01:58:55;;;;;;;;;16.20;13.80;;;;;7.72;59.80;101309.97;2089560;28;47501;-60
2021/11/30 02:00:16;;;;;;;;;14.80;14.80;;;;;7.72;59.77;101304.69;2087924;28;47467;-60
2021/11/30 02:01:36;;;;;;;;;12.60;11.60;;;;;7.73;59.66;101303.78;2087823;28;47587;-61
2021/11/30 02:02:57;;;;;;;;;16.00;13.40;;;;;7.74;59.64;101312.59;2079230;28;47029;-60
2021/11/30 02:04:18;;;;;;;;;14.00;12.60;;;;;7.75;59.70;101306.44;2098515;27;46925;-61
2021/11/30 02:05:40;;;;;;;;;14.00;13.60;;;;;7.75;59.72;101304.69;2084950;28;46923;-60
2021/11/30 02:06:52;;;;;;;;;11.60;9.60;;;;;7.75;59.80;101293.22;2088946;28;46957;-60
2021/11/30 02:08:13;;;;;;;;;14.80;13.60;;;;;7.76;59.73;101295.00;2091916;28;47258;-60
2021/11/30 02:09:36;;;;;;;;;14.20;12.80;;;;;7.76;60.00;101287.97;2087084;28;47811;-61
2021/11/30 02:10:57;;;;;;;;;10.20;10.20;;;;;7.77;59.63;101288.84;2097824;27;46269;-60
2021/11/30 02:12:17;;;;;;;;;15.40;14.20;;;;;7.78;59.95;101290.59;2089731;28;47094;-60
2021/11/30 02:13:38;;;;;;;;;11.20;11.20;;;;;7.79;59.80;101290.59;2099909;27;47590;-60
2021/11/30 02:15:00;;;;;;;;;10.40;9.80;;;;;7.81;59.60;101288.81;2083731;28;46983;-60
2021/11/30 02:16:22;;;;;;;;;10.80;9.80;;;;;7.81;59.82;101285.31;2085269;28;47093;-60
2021/11/30 02:17:42;;;;;;;;;12.00;12.00;;;;;7.84;59.73;101285.28;2085976;28;48095;-61
2021/11/30 02:19:03;;;;;;;;;13.00;11.40;;;;;7.85;59.61;101287.06;2077993;28;45041;-61
2021/11/30 02:20:24;;;;;;;;;14.00;11.20;;;;;7.84;59.64;101291.47;2083475;28;47104;-61
2021/11/30 02:21:44;;;;;;;;;14.80;11.20;;;;;7.86;59.92;101289.69;2086614;28;45197;-60
2021/11/30 02:23:09;;;;;;;;;13.60;11.80;;;;;7.86;59.66;101284.41;2084835;28;47610;-60
2021/11/30 02:24:29;;;;;;;;;12.20;11.80;;;;;7.85;59.70;101282.66;2092631;28;45351;-60
2021/11/30 02:25:50;;;;;;;;;10.60;10.60;;;;;7.86;59.61;101280.88;2087967;28;47757;-60
2021/11/30 02:27:10;;;;;;;;;14.40;12.80;;;;;7.84;59.44;101265.03;2089304;28;46848;-60
2021/11/30 02:28:31;;;;;;;;;11.00;9.80;;;;;7.84;59.43;101261.50;2086791;28;47537;-59
2021/11/30 02:29:49;;;;;;;;;12.20;9.80;;;;;7.84;59.62;101257.09;2091394;28;47094;-60
2021/11/30 02:31:13;;;;;;;;;11.20;11.00;;;;;7.83;59.75;101251.81;2090112;28;47950;-59
2021/11/30 02:32:33;;;;;;;;;12.00;11.60;;;;;7.81;59.77;101249.19;2089702;28;47713;-60
2021/11/30 02:33:54;;;;;;;;;10.40;10.00;;;;;7.81;59.76;101257.13;2088631;28;47765;-61
2021/11/30 02:35:15;;;;;;;;;14.80;12.40;;;;;7.79;59.57;101253.59;2089076;28;47984;-61
2021/11/30 02:38:07;;;;;;;;;18.20;14.80;;;;;7.76;59.37;101253.63;2089058;28;46868;-61
2021/11/30 02:39:28;;;;;;;;;13.20;11.20;;;;;7.76;59.68;101258.03;2089614;28;46980;-63
2021/11/30 02:40:49;;;;;;;;;14.00;11.40;;;;;7.74;59.76;101252.72;2089769;28;46844;-60
2021/11/30 02:42:10;;;;;;;;;16.00;15.00;;;;;7.73;59.97;101256.25;2088007;28;46891;-60
2021/11/30 02:43:31;;;;;;;;;12.20;12.20;;;;;7.72;59.79;101257.13;2088912;28;47788;-61
2021/11/30 02:44:51;;;;;;;;;12.40;11.20;;;;;7.71;59.84;101262.41;2090640;28;47444;-61
2021/11/30 02:46:29;;;;;;;;;8.00;8.00;;;;;7.68;59.62;101258.03;2080711;28;46699;-60
2021/11/30 02:47:47;;;;;;;;;13.00;13.00;;;;;7.65;59.73;101245.69;2089851;28;48240;-60
2021/11/30 02:49:11;;;;;;;;;15.80;14.00;;;;;7.64;59.85;101246.59;2091433;28;46998;-60
2021/11/30 02:50:39;;;;;;;;;11.60;10.80;;;;;7.63;59.97;101255.41;2087494;28;47116;-61
2021/11/30 02:52:01;;;;;;;;;4.20;4.20;;;;;7.62;60.04;101251.00;2089213;28;48003;-60
2021/11/30 02:53:22;;;;;;;;;14.80;13.00;;;;;7.61;59.89;101254.50;2100634;27;46969;-60
2021/11/30 02:54:45;;;;;;;;;8.80;8.80;;;;;7.61;60.10;101254.50;2092205;28;47019;-60
2021/11/30 02:55:58;;;;;;;;;14.00;12.60;;;;;7.62;60.10;101258.91;2092209;28;45120;-60
2021/11/30 02:57:18;;;;;;;;;14.60;14.60;;;;;7.63;60.24;101255.41;2088988;28;47506;-60
2021/11/30 02:58:39;;;;;;;;;10.20;10.20;;;;;7.64;60.08;101253.63;2094954;28;47777;-60
2021/11/30 02:59:59;;;;;;;;;11.20;11.20;;;;;7.64;60.00;101259.78;2086540;28;46729;-60
2021/11/30 03:01:12;;;;;;;;;13.20;10.80;;;;;7.65;60.14;101253.63;2091625;28;47605;-60
2021/11/30 03:02:28;;;;;;;;;13.20;13.20;;;;;7.66;60.03;101258.03;2090858;28;48106;-60
2021/11/30 03:03:48;;;;;;;;;12.00;11.40;;;;;7.67;60.34;101265.06;2090505;28;46963;-60
2021/11/30 03:05:09;;;;;;;;;14.80;14.80;;;;;7.69;60.10;101267.69;2088797;28;46685;-60
2021/11/30 03:06:32;;;;;;;;;15.80;15.80;;;;;7.69;60.00;101278.28;2087965;28;46790;-60
2021/11/30 03:07:53;;;;;;;;;16.40;15.20;;;;;7.70;60.10;101274.75;2089175;28;46821;-60
2021/11/30 03:09:13;;;;;;;;;19.20;17.60;;;;;7.72;60.23;101274.75;2092294;28;46952;-60
2021/11/30 03:10:34;;;;;;;;;15.00;13.60;;;;;7.73;60.12;101266.81;2090602;28;46964;-60
2021/11/30 03:11:55;;;;;;;;;12.20;11.40;;;;;7.74;60.27;101270.31;2088131;28;47453;-59
2021/11/30 03:13:16;;;;;;;;;12.00;12.00;;;;;7.74;60.07;101275.63;2091567;28;46395;-60
2021/11/30 03:14:37;;;;;;;;;15.40;13.60;;;;;7.76;60.13;101273.88;2080142;28;47152;-60
2021/11/30 03:15:58;;;;;;;;;11.80;11.80;;;;;7.77;60.04;101262.41;2085711;28;47743;-60
2021/11/30 03:17:19;;;;;;;;;12.20;11.20;;;;;7.77;60.45;101265.94;2087487;28;46849;-60
2021/11/30 03:18:40;;;;;;;;;13.00;13.00;;;;;7.79;60.13;101260.66;2099729;27;47550;-60
2021/11/30 03:20:00;;;;;;;;;11.80;11.80;;;;;7.80;60.25;101258.00;2083611;28;47385;-59
2021/11/30 03:21:21;;;;;;;;;14.40;14.40;;;;;7.82;60.08;101260.63;2091385;28;47693;-60
2021/11/30 03:22:41;;;;;;;;;13.40;13.40;;;;;7.82;60.19;101260.63;2091358;28;47770;-60
2021/11/30 03:24:02;;;;;;;;;15.00;15.00;;;;;7.81;59.96;101257.13;2086669;28;46867;-59
2021/11/30 03:25:23;;;;;;;;;12.20;11.20;;;;;7.81;60.12;101257.13;2078387;28;47538;-60
2021/11/30 03:26:44;;;;;;;;;14.00;14.00;;;;;7.82;60.21;101256.22;2083230;28;48050;-60
2021/11/30 03:28:04;;;;;;;;;13.60;13.60;;;;;7.84;60.22;101261.50;2086987;28;45041;-60
2021/11/30 03:29:25;;;;;;;;;10.00;10.00;;;;;7.85;60.09;101273.84;2101903;27;47020;-60
2021/11/30 03:30:42;;;;;;;;;10.40;10.40;;;;;7.85;59.97;101277.34;2095156;28;46424;-60
2021/11/30 03:35:06;;;;;;;;;11.20;11.00;;;;;7.88;59.88;101273.84;2102031;27;46945;-60
2021/11/30 03:36:28;;;;;;;;;11.00;11.00;;;;;7.89;60.17;101281.78;2084384;28;45061;-60
2021/11/30 03:37:36;;;;;;;;;12.20;12.00;;;;;7.89;59.85;101280.91;2087015;28;48408;-60
2021/11/30 03:38:58;;;;;;;;;11.40;11.40;;;;;7.89;59.88;101281.78;2086401;28;46809;-60
2021/11/30 03:40:19;;;;;;;;;14.00;12.60;;;;;7.89;60.14;101281.78;2092711;28;46840;-60
2021/11/30 03:41:41;;;;;;;;;13.80;12.40;;;;;7.88;59.95;101277.38;2087093;28;47711;-59
2021/11/30 03:43:01;;;;;;;;;15.00;11.40;;;;;7.90;59.87;101277.38;2090998;28;47427;-60
2021/11/30 03:44:23;;;;;;;;;17.60;14.20;;;;;7.90;60.19;101272.09;2083065;28;46861;-60
2021/11/30 03:45:44;;;;;;;;;15.20;13.60;;;;;7.90;60.00;101275.59;2102473;27;47077;-59
2021/11/30 03:47:04;;;;;;;;;10.00;10.00;;;;;7.90;60.13;101272.97;2089269;28;45279;-59
2021/11/30 03:48:24;;;;;;;;;11.20;11.20;;;;;7.93;60.07;101274.72;2085132;28;46979;-60
2021/11/30 03:49:45;;;;;;;;;17.20;12.80;;;;;7.91;60.03;101269.44;2098772;27;46915;-59
2021/11/30 03:51:05;;;;;;;;;11.60;11.60;;;;;7.92;60.07;101270.31;2089863;28;46822;-60
2021/11/30 03:52:26;;;;;;;;;8.80;8.40;;;;;7.91;60.14;101276.50;2092692;28;45201;-59
2021/11/30 03:53:46;;;;;;;;;16.00;13.60;;;;;7.91;60.18;101276.50;2092078;28;46972;-59
2021/11/30 03:55:07;;;;;;;;;14.20;14.20;;;;;7.91;60.39;101280.00;2086380;28;47639;-61
2021/11/30 03:56:28;;;;;;;;;13.20;13.20;;;;;7.93;60.39;101285.28;2087772;28;46930;-59
2021/11/30 03:57:49;;;;;;;;;14.00;12.20;;;;;7.93;60.27;101287.94;2088109;28;46860;-59
2021/11/30 03:59:11;;;;;;;;;11.20;11.20;;;;;7.93;60.45;101283.53;2090239;28;47208;-58
2021/11/30 04:00:31;;;;;;;;;11.80;11.80;;;;;7.94;60.46;101289.69;2093438;28;46985;-59
2021/11/30 04:01:52;;;;;;;;;15.40;12.00;;;;;7.94;60.67;101285.28;2080886;28;44971;-60
2021/11/30 04:03:12;;;;;;;;;13.80;13.40;;;;;7.95;60.57;101287.03;2087683;28;46794;-60
2021/11/30 04:04:41;;;;;;;;;17.00;15.00;;;;;7.95;60.54;101279.09;2088483;28;47512;-60
2021/11/30 04:06:03;;;;;;;;;11.00;11.00;;;;;7.96;60.99;101272.94;2101280;27;45337;-59
2021/11/30 04:07:23;;;;;;;;;10.80;10.80;;;;;7.98;60.92;101278.22;2094226;28;47065;-61
2021/11/30 04:08:44;;;;;;;;;16.40;12.40;;;;;8.00;61.05;101291.44;2091286;28;47074;-59
2021/11/30 04:10:05;;;;;;;;;14.60;11.40;;;;;8.00;60.99;101283.50;2102660;27;47638;-59
2021/11/30 04:11:25;;;;;;;;;14.60;13.60;;;;;7.99;61.10;101282.63;2084196;28;47535;-59
2021/11/30 04:12:46;;;;;;;;;5.80;5.80;;;;;7.99;60.58;101285.25;2084586;28;47694;-60
2021/11/30 04:14:03;;;;;;;;;15.80;15.40;;;;;8.00;61.18;101281.72;2088338;28;47792;-63
2021/11/30 04:15:23;;;;;;;;;12.40;11.80;;;;;8.01;61.14;101270.31;2097578;27;47016;-59
2021/11/30 04:16:44;;;;;;;;;11.80;11.80;;;;;8.01;61.33;101258.84;2085200;28;47035;-60
2021/11/30 04:18:05;;;;;;;;;14.00;14.00;;;;;8.01;61.36;101270.31;2086237;28;47620;-59
2021/11/30 04:19:25;;;;;;;;;10.00;10.00;;;;;8.03;61.21;101265.00;2101883;27;47523;-59
2021/11/30 04:20:46;;;;;;;;;13.80;13.80;;;;;8.04;61.26;101264.13;2089636;28;47837;-60
2021/11/30 04:22:06;;;;;;;;;12.60;12.20;;;;;8.04;61.36;101272.94;2096798;27;46958;-60
2021/11/30 04:23:27;;;;;;;;;16.40;15.40;;;;;8.04;61.23;101267.66;2088299;28;46916;-60
2021/11/30 04:24:48;;;;;;;;;12.20;11.80;;;;;8.05;61.53;101271.16;2089241;28;47463;-59
2021/11/30 04:26:08;;;;;;;;;12.40;12.40;;;;;8.05;61.50;101268.53;2078906;28;47233;-60
2021/11/30 04:27:30;;;;;;;;;11.80;11.80;;;;;8.07;61.29;101270.28;2083992;28;47509;-59
2021/11/30 04:28:51;;;;;;;;;16.20;13.20;;;;;8.07;61.48;101267.63;2079004;28;47082;-60
2021/11/30 04:30:05;;;;;;;;;11.00;11.00;;;;;8.07;61.59;101248.25;2091090;28;45471;-61
2021/11/30 04:31:23;;;;;;;;;14.00;13.20;;;;;8.07;61.42;101258.81;2091319;28;47290;-60
2021/11/30 04:32:41;;;;;;;;;11.00;11.00;;;;;8.09;61.46;101254.41;2089230;28;45377;-62
2021/11/30 04:34:03;;;;;;;;;11.40;10.00;;;;;8.09;61.58;101254.41;2088495;28;47730;-60
2021/11/30 04:35:25;;;;;;;;;14.60;13.20;;;;;8.09;61.73;101251.75;2086061;28;47473;-61
2021/11/30 04:36:46;;;;;;;;;13.60;12.80;;;;;8.10;61.62;101243.81;2088592;28;47563;-61
2021/11/30 04:38:06;;;;;;;;;12.00;12.00;;;;;8.10;61.73;101248.22;2085984;28;47462;-60
2021/11/30 04:39:27;;;;;;;;;11.80;11.80;;;;;8.11;61.63;101247.34;2078128;28;47598;-61
2021/11/30 04:40:39;;;;;;;;;16.00;14.40;;;;;8.10;61.40;101248.22;2084884;28;46355;-61
2021/11/30 04:42:01;;;;;;;;;14.60;14.60;;;;;8.09;61.75;101250.00;2080142;28;47667;-60
2021/11/30 04:43:22;;;;;;;;;13.00;10.40;;;;;8.07;61.67;101248.25;2083235;28;47028;-60
2021/11/30 04:47:04;;;;;;;;;13.40;13.40;;;;;8.06;61.80;101252.66;2087646;28;47925;-60
2021/11/30 04:48:20;;;;;;;;;11.80;10.20;;;;;8.07;61.95;101253.53;2072923;28;47634;-61
2021/11/30 04:49:52;;;;;;;;;16.60;16.00;;;;;8.07;61.94;101256.19;2080233;28;47618;-60
2021/11/30 04:51:14;;;;;;;;;13.20;11.60;;;;;8.06;61.94;101252.66;2099992;27;47628;-61
2021/11/30 04:52:37;;;;;;;;;15.40;14.80;;;;;8.05;61.90;101250.91;2084712;28;45905;-60
2021/11/30 04:53:51;;;;;;;;;12.00;11.60;;;;;8.03;62.04;101250.03;2086820;28;45559;-61
2021/11/30 04:55:11;;;;;;;;;11.00;10.80;;;;;8.03;61.92;101250.03;2090825;28;46995;-60
2021/11/30 04:56:34;;;;;;;;;11.40;11.20;;;;;8.04;61.97;101262.34;2099013;27;46896;-61
2021/11/30 04:57:57;;;;;;;;;11.00;10.20;;;;;8.03;61.98;101252.66;2090278;28;47367;-61
2021/11/30 04:59:20;;;;;;;;;12.20;11.20;;;;;8.02;61.79;101250.91;2097035;28;46798;-59
2021/11/30 05:00:41;;;;;;;;;12.00;11.20;;;;;8.02;62.05;101257.97;2083852;28;47042;-61
2021/11/30 05:02:01;;;;;;;;;11.40;10.60;;;;;8.01;62.15;101258.84;2078264;28;47607;-61
2021/11/30 05:03:19;;;;;;;;;15.20;14.60;;;;;8.01;62.02;101258.84;2086000;28;47431;-59
2021/11/30 05:04:40;;;;;;;;;16.40;15.80;;;;;8.00;62.29;101251.78;2094811;28;46927;-61
2021/11/30 05:06:01;;;;;;;;;14.00;12.00;;;;;8.00;62.18;101260.59;2089783;28;45570;-61
2021/11/30 05:07:22;;;;;;;;;14.40;14.00;;;;;7.97;62.14;101264.13;2086910;28;46778;-61
2021/11/30 05:08:42;;;;;;;;;12.80;12.80;;;;;7.97;62.28;101266.75;2086032;28;46842;-59
2021/11/30 05:10:03;;;;;;;;;13.40;13.40;;;;;7.96;62.21;101265.00;2088186;28;47618;-58
2021/11/30 05:11:23;;;;;;;;;14.80;13.00;;;;;7.95;62.68;101265.91;2084130;28;47867;-61
2021/11/30 05:12:45;;;;;;;;;11.20;10.80;;;;;7.94;62.44;101263.25;2086619;28;48060;-59
2021/11/30 05:14:06;;;;;;;;;11.60;10.20;;;;;7.93;62.55;101261.50;2087712;28;48073;-59
2021/11/30 05:15:14;;;;;;;;;13.60;13.60;;;;;7.94;62.91;101263.25;2090291;28;47401;-59
2021/11/30 05:16:35;;;;;;;;;12.60;12.40;;;;;7.92;62.75;101260.63;2088464;28;46192;-60
2021/11/30 05:17:55;;;;;;;;;13.40;13.40;;;;;7.91;62.83;101261.50;2087776;28;47672;-60
2021/11/30 05:19:16;;;;;;;;;14.80;12.20;;;;;7.91;62.71;101258.00;2085732;28;47812;-60
2021/11/30 05:20:36;;;;;;;;;10.80;10.20;;;;;7.91;62.92;101253.59;2079344;28;47547;-60
2021/11/30 05:21:56;;;;;;;;;11.60;10.00;;;;;7.91;62.86;101250.06;2085370;28;48281;-60
2021/11/30 05:23:27;;;;;;;;;12.60;11.80;;;;;7.89;62.92;101260.63;2087104;28;45410;-60
2021/11/30 05:24:47;;;;;;;;;12.00;10.80;;;;;7.88;62.90;101250.97;2100892;27;45411;-59
2021/11/30 05:26:09;;;;;;;;;9.40;9.00;;;;;7.88;63.16;101239.50;2083459;28;47725;-59
2021/11/30 05:27:38;;;;;;;;;9.00;9.00;;;;;7.88;62.95;101242.16;2084764;28;47768;-60
2021/11/30 05:28:58;;;;;;;;;14.80;14.80;;;;;7.87;63.13;101235.06;2088186;28;45471;-59
2021/11/30 05:30:20;;;;;;;;;10.40;9.60;;;;;7.87;63.21;101233.31;2087335;28;46348;-60
2021/11/30 05:31:41;;;;;;;;;11.80;11.80;;;;;7.87;63.18;101235.94;2088137;28;46945;-60
2021/11/30 05:33:10;;;;;;;;;11.80;11.80;;;;;7.89;63.38;101239.50;2087071;28;46943;-60
2021/11/30 05:34:28;;;;;;;;;14.20;11.20;;;;;7.89;63.21;101236.84;2089515;28;47876;-60
2021/11/30 05:35:49;;;;;;;;;15.40;14.20;;;;;7.91;63.35;101223.63;2087710;28;47697;-60
2021/11/30 05:37:09;;;;;;;;;10.60;10.00;;;;;7.91;63.42;101228.91;2085609;28;47391;-60
2021/11/30 05:38:31;;;;;;;;;11.00;10.00;;;;;7.90;63.36;101224.53;2093339;28;45545;-59
2021/11/30 05:39:52;;;;;;;;;11.40;10.40;;;;;7.90;63.34;101225.41;2085486;28;45026;-59
2021/11/30 05:41:13;;;;;;;;;12.00;12.00;;;;;7.91;63.58;101223.63;2087054;28;45357;-61
2021/11/30 05:42:33;;;;;;;;;10.60;10.60;;;;;7.93;63.33;101229.78;2078978;28;45203;-59
2021/11/30 05:43:54;;;;;;;;;11.40;11.00;;;;;7.93;63.49;101225.38;2084436;28;47204;-60
2021/11/30 05:45:14;;;;;;;;;12.40;11.20;;;;;7.95;63.71;101230.66;2085721;28;45870;-59
2021/11/30 05:46:36;;;;;;;;;13.40;12.40;;;;;7.95;63.47;101236.81;2085809;28;48159;-59
2021/11/30 05:47:57;;;;;;;;;12.80;11.20;;;;;7.96;63.93;101250.91;2089036;28;45818;-60
2021/11/30 05:49:18;;;;;;;;;11.80;11.80;;;;;7.96;63.38;101241.22;2101858;27;47041;-60
2021/11/30 05:50:38;;;;;;;;;11.20;10.00;;;;;7.96;63.39;101248.28;2093501;28;47579;-60
2021/11/30 05:52:00;;;;;;;;;11.80;11.80;;;;;7.98;63.96;101251.78;2081657;28;45302;-59
2021/11/30 05:53:20;;;;;;;;;10.40;10.00;;;;;7.98;63.62;101244.72;2084177;28;47625;-60
2021/11/30 05:54:41;;;;;;;;;17.20;15.00;;;;;8.00;63.62;101243.84;2095468;27;47605;-59
2021/11/30 05:55:54;;;;;;;;;10.60;9.40;;;;;8.00;63.70;101242.09;2095576;27;45287;-60
2021/11/30 05:57:18;;;;;;;;;13.40;12.60;;;;;8.03;63.74;101235.94;2086010;28;47022;-60
2021/11/30 05:58:41;;;;;;;;;13.20;12.20;;;;;8.03;63.67;101235.94;2099346;27;46824;-60
2021/11/30 06:00:03;;;;;;;;;11.60;11.00;;;;;8.03;63.76;101239.47;2099645;27;47003;-59
2021/11/30 06:01:25;;;;;;;;;12.20;9.40;;;;;8.05;63.55;101235.03;2086357;27;47296;-60
2021/11/30 06:04:17;;;;;;;;;9.00;9.00;;;;;8.06;63.68;101235.91;2088031;28;46330;-60
2021/11/30 06:05:37;;;;;;;;;12.20;12.20;;;;;8.09;63.66;101230.63;2086796;28;45473;-60
2021/11/30 06:06:58;;;;;;;;;9.80;8.60;;;;;8.09;63.83;101228.84;2075891;28;47023;-60
2021/11/30 06:08:18;;;;;;;;;12.60;11.60;;;;;8.11;63.97;101239.41;2100101;27;47126;-60
2021/11/30 06:09:39;;;;;;;;;12.80;11.20;;;;;8.11;63.79;101229.72;2095351;28;46791;-62